sensor_id;sensor_type;location;lat;lon;timestamp;pressure;altitude;pressure_sealevel;temperature;humidity
21828;BME280;11076;47.942;11.804;2023-04-29T00:02:48;94078.78;;;8.92;100.00
21828;BME280;11076;47.942;11.804;2023-04-29T00:07:50;94074.06;;;8.94;100.00
21828;BME280;11076;47.942;11.804;2023-04-29T00:12:52;94079.84;;;8.91;100.00
21828;BME280;11076;47.942;11.804;2023-04-29T00:17:55;94074.06;;;8.94;100.00
21828;BME280;11076;47.942;11.804;2023-04-29T00:22:57;94071.66;;;8.86;100.00
21828;BME280;11076;47.942;11.804;2023-04-29T00:28:00;94076.22;;;8.79;100.00
21828;BME280;11076;47.942;11.804;2023-04-29T00:33:03;94064.75;;;8.79;100.00
21828;BME280;11076;47.942;11.804;2023-04-29T00:38:05;94059.47;;;8.72;100.00
21828;BME280;11076;47.942;11.804;2023-04-29T00:48:37;94068.31;;;8.66;100.00
21828;BME280;11076;47.942;11.804;2023-04-29T00:53:40;94068.91;;;8.68;100.00
21828;BME280;11076;47.942;11.804;2023-04-29T00:58:43;94067.13;;;8.62;100.00
21828;BME280;11076;47.942;11.804;2023-04-29T01:03:51;94057.66;;;8.66;100.00
21828;BME280;11076;47.942;11.804;2023-04-29T01:14:22;94058.84;;;8.70;100.00
21828;BME280;11076;47.942;11.804;2023-04-29T01:19:43;94053.13;;;8.66;100.00
21828;BME280;11076;47.942;11.804;2023-04-29T01:24:48;94062.06;;;8.79;100.00
21828;BME280;11076;47.942;11.804;2023-04-29T01:29:58;94055.94;;;8.78;100.00
21828;BME280;11076;47.942;11.804;2023-04-29T01:35:10;94063.66;;;8.86;100.00
21828;BME280;11076;47.942;11.804;2023-04-29T01:40:33;94062.25;;;8.84;100.00
21828;BME280;11076;47.942;11.804;2023-04-29T01:45:46;94055.34;;;8.76;100.00
21828;BME280;11076;47.942;11.804;2023-04-29T01:50:50;94049.81;;;8.71;100.00
21828;BME280;11076;47.942;11.804;2023-04-29T01:55:52;94052.59;;;8.58;100.00
21828;BME280;11076;47.942;11.804;2023-04-29T02:00:59;94052.16;;;8.61;100.00
21828;BME280;11076;47.942;11.804;2023-04-29T02:06:05;94045.56;;;8.63;100.00
21828;BME280;11076;47.942;11.804;2023-04-29T02:11:09;94049.69;;;8.59;100.00
21828;BME280;11076;47.942;11.804;2023-04-29T02:16:14;94048.94;;;8.52;100.00
21828;BME280;11076;47.942;11.804;2023-04-29T02:21:21;94050.38;;;8.48;100.00
21828;BME280;11076;47.942;11.804;2023-04-29T02:26:24;94042.41;;;8.41;100.00
21828;BME280;11076;47.942;11.804;2023-04-29T02:31:29;94044.88;;;8.43;100.00
21828;BME280;11076;47.942;11.804;2023-04-29T02:36:31;94042.75;;;8.51;100.00
21828;BME280;11076;47.942;11.804;2023-04-29T02:41:33;94048.47;;;8.62;100.00
21828;BME280;11076;47.942;11.804;2023-04-29T02:46:36;94049.69;;;8.59;100.00
21828;BME280;11076;47.942;11.804;2023-04-29T02:51:38;94050.69;;;9.65;100.00
21828;BME280;11076;47.942;11.804;2023-04-29T02:56:42;94062.66;;;9.38;100.00
21828;BME280;11076;47.942;11.804;2023-04-29T03:01:45;94056.31;;;9.32;100.00
21828;BME280;11076;47.942;11.804;2023-04-29T03:06:49;94059.13;;;10.18;100.00
21828;BME280;11076;47.942;11.804;2023-04-29T03:11:52;94063.00;;;9.85;100.00
21828;BME280;11076;47.942;11.804;2023-04-29T03:16:54;94060.88;;;9.50;100.00
21828;BME280;11076;47.942;11.804;2023-04-29T03:21:57;94057.41;;;9.24;100.00
21828;BME280;11076;47.942;11.804;2023-04-29T03:26:59;94063.53;;;9.31;100.00
21828;BME280;11076;47.942;11.804;2023-04-29T03:32:02;94059.19;;;9.55;100.00
21828;BME280;11076;47.942;11.804;2023-04-29T03:37:05;94059.28;;;10.04;100.00
21828;BME280;11076;47.942;11.804;2023-04-29T03:42:11;94063.25;;;9.58;100.00
21828;BME280;11076;47.942;11.804;2023-04-29T03:47:16;94057.34;;;9.74;100.00
21828;BME280;11076;47.942;11.804;2023-04-29T03:52:20;94054.78;;;10.05;100.00
21828;BME280;11076;47.942;11.804;2023-04-29T03:57:25;94061.91;;;10.60;100.00
21828;BME280;11076;47.942;11.804;2023-04-29T04:02:29;94059.13;;;10.36;100.00
21828;BME280;11076;47.942;11.804;2023-04-29T04:07:31;94062.66;;;10.48;100.00
21828;BME280;11076;47.942;11.804;2023-04-29T04:12:56;94056.22;;;11.10;100.00
21828;BME280;11076;47.942;11.804;2023-04-29T04:17:59;94054.31;;;11.41;100.00
21828;BME280;11076;47.942;11.804;2023-04-29T04:23:01;94061.50;;;11.75;100.00
21828;BME280;11076;47.942;11.804;2023-04-29T04:28:04;94067.56;;;11.71;100.00
21828;BME280;11076;47.942;11.804;2023-04-29T04:33:32;94066.06;;;11.75;100.00
21828;BME280;11076;47.942;11.804;2023-04-29T04:38:35;94075.72;;;11.88;100.00
21828;BME280;11076;47.942;11.804;2023-04-29T04:43:42;94081.63;;;12.13;100.00
21828;BME280;11076;47.942;11.804;2023-04-29T04:48:54;94079.66;;;11.26;100.00
21828;BME280;11076;47.942;11.804;2023-04-29T04:53:56;94075.59;;;11.35;100.00
21828;BME280;11076;47.942;11.804;2023-04-29T04:59:03;94082.22;;;11.45;100.00
21828;BME280;11076;47.942;11.804;2023-04-29T05:04:05;94084.91;;;11.57;100.00
21828;BME280;11076;47.942;11.804;2023-04-29T05:09:08;94084.94;;;12.04;100.00
21828;BME280;11076;47.942;11.804;2023-04-29T05:14:11;94084.75;;;12.74;100.00
21828;BME280;11076;47.942;11.804;2023-04-29T05:19:13;94076.72;;;14.27;100.00
21828;BME280;11076;47.942;11.804;2023-04-29T05:24:16;94084.00;;;14.48;100.00
21828;BME280;11076;47.942;11.804;2023-04-29T05:29:19;94082.94;;;15.26;100.00
21828;BME280;11076;47.942;11.804;2023-04-29T05:34:26;94089.72;;;18.53;100.00
21828;BME280;11076;47.942;11.804;2023-04-29T05:39:28;94093.00;;;18.44;100.00
21828;BME280;11076;47.942;11.804;2023-04-29T05:44:41;94101.19;;;17.98;100.00
21828;BME280;11076;47.942;11.804;2023-04-29T05:49:44;94102.84;;;16.22;100.00
21828;BME280;11076;47.942;11.804;2023-04-29T05:54:46;94099.72;;;18.52;97.05
21828;BME280;11076;47.942;11.804;2023-04-29T05:59:49;94104.81;;;18.79;90.86
21828;BME280;11076;47.942;11.804;2023-04-29T06:04:51;94109.16;;;18.80;90.30
21828;BME280;11076;47.942;11.804;2023-04-29T06:10:00;94099.88;;;22.72;71.56
21828;BME280;11076;47.942;11.804;2023-04-29T06:15:04;94103.38;;;19.02;80.05
21828;BME280;11076;47.942;11.804;2023-04-29T06:20:07;94118.94;;;17.17;86.37
21828;BME280;11076;47.942;11.804;2023-04-29T06:25:10;94120.88;;;16.69;88.93
21828;BME280;11076;47.942;11.804;2023-04-29T06:30:21;94131.13;;;16.62;92.39
21828;BME280;11076;47.942;11.804;2023-04-29T06:35:23;94129.72;;;17.07;92.93
21828;BME280;11076;47.942;11.804;2023-04-29T06:40:58;94134.50;;;15.99;97.72
21828;BME280;11076;47.942;11.804;2023-04-29T06:46:25;94142.88;;;15.38;100.00
21828;BME280;11076;47.942;11.804;2023-04-29T06:51:37;94133.31;;;15.85;99.34
21828;BME280;11076;47.942;11.804;2023-04-29T06:56:39;94135.84;;;16.87;96.22
21828;BME280;11076;47.942;11.804;2023-04-29T07:01:42;94151.38;;;15.84;100.00
21828;BME280;11076;47.942;11.804;2023-04-29T07:06:45;94155.56;;;15.43;100.00
21828;BME280;11076;47.942;11.804;2023-04-29T07:11:48;94140.13;;;16.35;97.32
21828;BME280;11076;47.942;11.804;2023-04-29T07:16:54;94146.41;;;16.46;94.53
21828;BME280;11076;47.942;11.804;2023-04-29T07:21:56;94146.50;;;16.61;94.75
21828;BME280;11076;47.942;11.804;2023-04-29T07:26:59;94145.63;;;17.03;92.72
21828;BME280;11076;47.942;11.804;2023-04-29T07:32:01;94143.28;;;17.33;90.14
21828;BME280;11076;47.942;11.804;2023-04-29T07:37:04;94152.56;;;16.84;89.87
21828;BME280;11076;47.942;11.804;2023-04-29T07:42:06;94155.91;;;17.17;90.24
21828;BME280;11076;47.942;11.804;2023-04-29T07:47:08;94160.63;;;17.57;87.09
21828;BME280;11076;47.942;11.804;2023-04-29T07:52:11;94160.69;;;16.89;86.87
21828;BME280;11076;47.942;11.804;2023-04-29T07:57:14;94155.13;;;17.16;86.16
21828;BME280;11076;47.942;11.804;2023-04-29T08:02:17;94153.06;;;18.36;85.40
21828;BME280;11076;47.942;11.804;2023-04-29T08:07:21;94155.53;;;18.27;80.89
21828;BME280;11076;47.942;11.804;2023-04-29T08:12:25;94166.91;;;16.89;85.36
21828;BME280;11076;47.942;11.804;2023-04-29T08:17:27;94162.56;;;16.41;84.64
21828;BME280;11076;47.942;11.804;2023-04-29T08:22:29;94162.06;;;16.92;84.94
21828;BME280;11076;47.942;11.804;2023-04-29T08:27:32;94157.63;;;17.43;83.13
21828;BME280;11076;47.942;11.804;2023-04-29T08:32:34;94156.75;;;17.17;83.67
21828;BME280;11076;47.942;11.804;2023-04-29T08:37:37;94171.06;;;16.65;80.49
21828;BME280;11076;47.942;11.804;2023-04-29T08:42:39;94152.88;;;16.87;81.35
21828;BME280;11076;47.942;11.804;2023-04-29T08:47:43;94151.69;;;17.41;80.29
21828;BME280;11076;47.942;11.804;2023-04-29T08:52:46;94149.03;;;18.18;75.40
21828;BME280;11076;47.942;11.804;2023-04-29T08:57:53;94140.66;;;17.84;73.84
21828;BME280;11076;47.942;11.804;2023-04-29T09:02:56;94143.91;;;17.96;71.27
21828;BME280;11076;47.942;11.804;2023-04-29T09:08:00;94140.63;;;18.51;68.78
21828;BME280;11076;47.942;11.804;2023-04-29T09:13:04;94141.44;;;19.26;65.00
21828;BME280;11076;47.942;11.804;2023-04-29T09:18:06;94148.22;;;18.02;67.76
21828;BME280;11076;47.942;11.804;2023-04-29T09:23:09;94146.28;;;17.46;72.04
21828;BME280;11076;47.942;11.804;2023-04-29T09:28:15;94139.56;;;17.59;72.69
21828;BME280;11076;47.942;11.804;2023-04-29T09:33:18;94146.91;;;17.89;73.82
21828;BME280;11076;47.942;11.804;2023-04-29T09:38:20;94145.56;;;17.97;73.74
21828;BME280;11076;47.942;11.804;2023-04-29T09:43:23;94139.84;;;18.14;72.96
21828;BME280;11076;47.942;11.804;2023-04-29T09:48:30;94136.16;;;19.01;69.73
21828;BME280;11076;47.942;11.804;2023-04-29T09:53:34;94134.06;;;18.82;68.11
21828;BME280;11076;47.942;11.804;2023-04-29T09:58:39;94140.66;;;18.25;69.47
21828;BME280;11076;47.942;11.804;2023-04-29T10:03:42;94137.41;;;18.18;68.69
21828;BME280;11076;47.942;11.804;2023-04-29T10:08:46;94130.88;;;18.34;66.56
21828;BME280;11076;47.942;11.804;2023-04-29T10:13:50;94139.00;;;17.52;68.34
21828;BME280;11076;47.942;11.804;2023-04-29T10:18:55;94161.81;;;16.45;79.07
21828;BME280;11076;47.942;11.804;2023-04-29T10:23:58;94165.28;;;16.03;86.20
21828;BME280;11076;47.942;11.804;2023-04-29T10:29:04;94155.19;;;16.74;84.46
21828;BME280;11076;47.942;11.804;2023-04-29T10:34:06;94147.66;;;17.49;79.67
21828;BME280;11076;47.942;11.804;2023-04-29T10:39:18;94146.09;;;17.89;79.12
21828;BME280;11076;47.942;11.804;2023-04-29T10:44:22;94130.78;;;18.85;77.76
21828;BME280;11076;47.942;11.804;2023-04-29T10:49:33;94119.50;;;19.67;77.88
21828;BME280;11076;47.942;11.804;2023-04-29T10:54:35;94105.22;;;19.52;70.05
21828;BME280;11076;47.942;11.804;2023-04-29T11:05:06;94112.63;;;19.41;65.84
21828;BME280;11076;47.942;11.804;2023-04-29T11:10:09;94106.81;;;19.97;68.38
21828;BME280;11076;47.942;11.804;2023-04-29T11:15:16;94104.66;;;19.60;66.99
21828;BME280;11076;47.942;11.804;2023-04-29T11:20:19;94106.28;;;19.16;63.70
21828;BME280;11076;47.942;11.804;2023-04-29T11:25:24;94095.97;;;19.97;63.04
21828;BME280;11076;47.942;11.804;2023-04-29T11:30:27;94108.66;;;19.23;63.07
21828;BME280;11076;47.942;11.804;2023-04-29T11:35:30;94125.38;;;18.70;69.01
21828;BME280;11076;47.942;11.804;2023-04-29T11:40:32;94121.59;;;18.66;74.78
21828;BME280;11076;47.942;11.804;2023-04-29T11:45:34;94124.72;;;19.09;77.39
21828;BME280;11076;47.942;11.804;2023-04-29T11:50:37;94124.84;;;18.83;75.50
21828;BME280;11076;47.942;11.804;2023-04-29T11:55:44;94118.84;;;18.92;72.00
21828;BME280;11076;47.942;11.804;2023-04-29T12:00:47;94110.84;;;19.26;69.98
21828;BME280;11076;47.942;11.804;2023-04-29T12:05:54;94120.66;;;17.90;76.52
21828;BME280;11076;47.942;11.804;2023-04-29T12:10:58;94131.97;;;17.56;77.88
21828;BME280;11076;47.942;11.804;2023-04-29T12:16:01;94119.56;;;18.17;79.03
21828;BME280;11076;47.942;11.804;2023-04-29T12:21:04;94114.63;;;18.55;75.91
21828;BME280;11076;47.942;11.804;2023-04-29T12:26:07;94121.91;;;18.54;73.05
21828;BME280;11076;47.942;11.804;2023-04-29T12:31:10;94114.03;;;18.68;73.62
21828;BME280;11076;47.942;11.804;2023-04-29T12:36:16;94105.22;;;19.12;71.65
21828;BME280;11076;47.942;11.804;2023-04-29T12:41:19;94109.41;;;20.13;63.19
21828;BME280;11076;47.942;11.804;2023-04-29T12:46:22;94121.81;;;19.45;60.84
21828;BME280;11076;47.942;11.804;2023-04-29T12:51:24;94115.75;;;18.33;66.83
21828;BME280;11076;47.942;11.804;2023-04-29T12:56:28;94110.63;;;18.37;67.57
21828;BME280;11076;47.942;11.804;2023-04-29T13:01:30;94111.91;;;18.55;65.09
21828;BME280;11076;47.942;11.804;2023-04-29T13:06:34;94118.91;;;18.71;65.38
21828;BME280;11076;47.942;11.804;2023-04-29T13:11:40;94130.34;;;18.42;64.47
21828;BME280;11076;47.942;11.804;2023-04-29T13:16:43;94128.03;;;19.01;63.61
21828;BME280;11076;47.942;11.804;2023-04-29T13:21:46;94130.78;;;18.70;62.43
21828;BME280;11076;47.942;11.804;2023-04-29T13:26:49;94136.47;;;18.74;62.54
21828;BME280;11076;47.942;11.804;2023-04-29T13:31:53;94130.59;;;18.51;61.31
21828;BME280;11076;47.942;11.804;2023-04-29T13:36:56;94129.88;;;19.05;58.57
21828;BME280;11076;47.942;11.804;2023-04-29T13:41:58;94124.72;;;19.14;60.45
21828;BME280;11076;47.942;11.804;2023-04-29T13:47:01;94109.63;;;19.87;58.04
21828;BME280;11076;47.942;11.804;2023-04-29T13:52:06;94105.50;;;20.24;56.87
21828;BME280;11076;47.942;11.804;2023-04-29T13:57:23;94112.84;;;19.00;58.17
21828;BME280;11076;47.942;11.804;2023-04-29T14:02:48;94120.34;;;19.18;58.33
21828;BME280;11076;47.942;11.804;2023-04-29T14:08:02;94110.41;;;19.03;57.89
21828;BME280;11076;47.942;11.804;2023-04-29T14:13:04;94110.34;;;19.58;55.84
21828;BME280;11076;47.942;11.804;2023-04-29T14:18:07;94112.56;;;19.06;56.75
21828;BME280;11076;47.942;11.804;2023-04-29T14:23:11;94125.47;;;18.44;57.49
21828;BME280;11076;47.942;11.804;2023-04-29T14:28:14;94136.88;;;18.05;58.34
21828;BME280;11076;47.942;11.804;2023-04-29T14:33:16;94137.31;;;18.69;57.72
21828;BME280;11076;47.942;11.804;2023-04-29T14:38:18;94131.78;;;19.10;56.01
21828;BME280;11076;47.942;11.804;2023-04-29T14:43:21;94138.47;;;18.32;55.67
21828;BME280;11076;47.942;11.804;2023-04-29T14:48:24;94145.28;;;17.99;57.57
21828;BME280;11076;47.942;11.804;2023-04-29T14:53:26;94154.31;;;19.00;55.79
21828;BME280;11076;47.942;11.804;2023-04-29T14:58:29;94142.25;;;18.41;54.59
21828;BME280;11076;47.942;11.804;2023-04-29T15:03:31;94152.88;;;19.13;53.28
21828;BME280;11076;47.942;11.804;2023-04-29T15:08:34;94161.69;;;18.79;54.78
21828;BME280;11076;47.942;11.804;2023-04-29T15:13:37;94165.00;;;18.09;54.97
21828;BME280;11076;47.942;11.804;2023-04-29T15:18:40;94175.84;;;18.09;57.68
21828;BME280;11076;47.942;11.804;2023-04-29T15:23:45;94180.72;;;17.87;59.22
21828;BME280;11076;47.942;11.804;2023-04-29T15:28:47;94183.66;;;18.16;59.33
21828;BME280;11076;47.942;11.804;2023-04-29T15:33:52;94180.16;;;17.85;59.10
21828;BME280;11076;47.942;11.804;2023-04-29T15:38:56;94192.88;;;17.95;58.86
21828;BME280;11076;47.942;11.804;2023-04-29T15:43:59;94193.44;;;18.07;58.61
21828;BME280;11076;47.942;11.804;2023-04-29T15:49:01;94207.03;;;17.39;61.47
21828;BME280;11076;47.942;11.804;2023-04-29T15:54:05;94204.06;;;17.30;61.21
21828;BME280;11076;47.942;11.804;2023-04-29T15:59:08;94210.81;;;17.27;61.39
21828;BME280;11076;47.942;11.804;2023-04-29T16:04:11;94210.81;;;17.27;61.35
21828;BME280;11076;47.942;11.804;2023-04-29T16:09:13;94214.50;;;17.06;61.55
21828;BME280;11076;47.942;11.804;2023-04-29T16:14:16;94218.16;;;16.84;60.80
21828;BME280;11076;47.942;11.804;2023-04-29T16:19:18;94221.41;;;16.86;60.53
21828;BME280;11076;47.942;11.804;2023-04-29T16:24:20;94239.13;;;16.29;62.23
21828;BME280;11076;47.942;11.804;2023-04-29T16:29:23;94248.63;;;15.78;62.47
21828;BME280;11076;47.942;11.804;2023-04-29T16:34:26;94262.25;;;15.71;64.64
21828;BME280;11076;47.942;11.804;2023-04-29T16:39:28;94266.97;;;15.81;65.14
21828;BME280;11076;47.942;11.804;2023-04-29T16:44:31;94272.63;;;15.79;63.77
21828;BME280;11076;47.942;11.804;2023-04-29T16:49:33;94269.63;;;15.76;63.58
21828;BME280;11076;47.942;11.804;2023-04-29T16:54:35;94270.44;;;15.54;64.34
21828;BME280;11076;47.942;11.804;2023-04-29T16:59:38;94279.03;;;15.29;66.71
21828;BME280;11076;47.942;11.804;2023-04-29T17:04:40;94277.72;;;15.09;68.14
21828;BME280;11076;47.942;11.804;2023-04-29T17:09:43;94280.28;;;14.99;69.16
21828;BME280;11076;47.942;11.804;2023-04-29T17:14:45;94286.84;;;14.86;68.45
21828;BME280;11076;47.942;11.804;2023-04-29T17:19:49;94290.91;;;14.72;69.32
21828;BME280;11076;47.942;11.804;2023-04-29T17:24:52;94295.00;;;14.75;70.60
21828;BME280;11076;47.942;11.804;2023-04-29T17:29:55;94302.03;;;14.59;73.13
21828;BME280;11076;47.942;11.804;2023-04-29T17:34:58;94314.53;;;14.36;74.79
21828;BME280;11076;47.942;11.804;2023-04-29T17:40:01;94320.72;;;14.20;75.23
21828;BME280;11076;47.942;11.804;2023-04-29T17:45:03;94327.06;;;14.13;76.71
21828;BME280;11076;47.942;11.804;2023-04-29T17:50:06;94329.59;;;14.03;76.67
21828;BME280;11076;47.942;11.804;2023-04-29T17:55:09;94342.50;;;13.89;76.37
21828;BME280;11076;47.942;11.804;2023-04-29T18:00:12;94340.81;;;13.71;76.27
21828;BME280;11076;47.942;11.804;2023-04-29T18:05:14;94348.88;;;13.71;76.28
21828;BME280;11076;47.942;11.804;2023-04-29T18:10:17;94358.38;;;13.62;76.38
21828;BME280;11076;47.942;11.804;2023-04-29T18:15:19;94354.44;;;13.53;76.61
21828;BME280;11076;47.942;11.804;2023-04-29T18:20:24;94359.69;;;13.48;77.49
21828;BME280;11076;47.942;11.804;2023-04-29T18:25:26;94368.00;;;13.35;77.98
21828;BME280;11076;47.942;11.804;2023-04-29T18:30:29;94368.25;;;13.33;78.02
21828;BME280;11076;47.942;11.804;2023-04-29T18:35:31;94372.78;;;13.32;78.48
21828;BME280;11076;47.942;11.804;2023-04-29T18:40:34;94373.63;;;13.21;79.75
21828;BME280;11076;47.942;11.804;2023-04-29T18:45:37;94379.00;;;13.21;79.07
21828;BME280;11076;47.942;11.804;2023-04-29T18:50:40;94388.78;;;13.27;79.01
21828;BME280;11076;47.942;11.804;2023-04-29T18:55:43;94396.25;;;13.25;79.38
21828;BME280;11076;47.942;11.804;2023-04-29T19:00:45;94400.22;;;13.11;80.79
21828;BME280;11076;47.942;11.804;2023-04-29T19:05:48;94411.44;;;12.96;82.54
21828;BME280;11076;47.942;11.804;2023-04-29T19:10:50;94421.91;;;12.86;83.69
21828;BME280;11076;47.942;11.804;2023-04-29T19:15:54;94426.81;;;12.65;84.88
21828;BME280;11076;47.942;11.804;2023-04-29T19:20:57;94434.00;;;12.65;84.40
21828;BME280;11076;47.942;11.804;2023-04-29T19:25:59;94431.91;;;12.67;85.64
21828;BME280;11076;47.942;11.804;2023-04-29T19:31:02;94435.59;;;12.42;87.19
21828;BME280;11076;47.942;11.804;2023-04-29T19:36:05;94443.78;;;12.47;87.67
21828;BME280;11076;47.942;11.804;2023-04-29T19:41:08;94444.63;;;12.18;89.75
21828;BME280;11076;47.942;11.804;2023-04-29T19:46:11;94439.53;;;12.09;90.40
21828;BME280;11076;47.942;11.804;2023-04-29T19:51:14;94441.78;;;12.12;90.66
21828;BME280;11076;47.942;11.804;2023-04-29T19:56:17;94454.13;;;12.13;89.85
21828;BME280;11076;47.942;11.804;2023-04-29T20:01:21;94454.81;;;12.09;90.04
21828;BME280;11076;47.942;11.804;2023-04-29T20:06:23;94456.09;;;12.06;89.99
21828;BME280;11076;47.942;11.804;2023-04-29T20:11:26;94451.75;;;12.05;89.88
21828;BME280;11076;47.942;11.804;2023-04-29T20:16:29;94453.09;;;12.14;89.73
21828;BME280;11076;47.942;11.804;2023-04-29T20:21:32;94452.22;;;12.02;90.70
21828;BME280;11076;47.942;11.804;2023-04-29T20:26:34;94450.84;;;12.00;90.23
21828;BME280;11076;47.942;11.804;2023-04-29T20:31:37;94451.28;;;11.97;90.15
21828;BME280;11076;47.942;11.804;2023-04-29T20:36:39;94456.53;;;11.85;91.06
21828;BME280;11076;47.942;11.804;2023-04-29T20:41:41;94452.88;;;11.79;91.47
21828;BME280;11076;47.942;11.804;2023-04-29T20:46:44;94462.94;;;11.65;91.76
21828;BME280;11076;47.942;11.804;2023-04-29T20:51:54;94465.56;;;11.72;91.96
21828;BME280;11076;47.942;11.804;2023-04-29T20:56:57;94462.63;;;11.73;92.13
21828;BME280;11076;47.942;11.804;2023-04-29T21:02:00;94467.44;;;11.90;91.62
21828;BME280;11076;47.942;11.804;2023-04-29T21:07:03;94467.13;;;11.98;91.12
21828;BME280;11076;47.942;11.804;2023-04-29T21:12:06;94459.06;;;11.80;92.75
21828;BME280;11076;47.942;11.804;2023-04-29T21:17:09;94471.13;;;11.70;93.22
21828;BME280;11076;47.942;11.804;2023-04-29T21:22:11;94464.97;;;11.70;93.38
21828;BME280;11076;47.942;11.804;2023-04-29T21:27:14;94468.44;;;11.70;94.06
21828;BME280;11076;47.942;11.804;2023-04-29T21:32:16;94476.91;;;11.67;95.75
21828;BME280;11076;47.942;11.804;2023-04-29T21:37:22;94481.03;;;11.70;95.80
21828;BME280;11076;47.942;11.804;2023-04-29T21:42:25;94484.66;;;11.75;96.04
21828;BME280;11076;47.942;11.804;2023-04-29T21:47:28;94483.13;;;11.68;96.20
21828;BME280;11076;47.942;11.804;2023-04-29T21:52:31;94477.44;;;11.58;96.59
21828;BME280;11076;47.942;11.804;2023-04-29T21:57:36;94474.53;;;11.59;96.77
21828;BME280;11076;47.942;11.804;2023-04-29T22:02:44;94477.66;;;11.38;96.55
21828;BME280;11076;47.942;11.804;2023-04-29T22:07:46;94473.75;;;11.15;96.11
21828;BME280;11076;47.942;11.804;2023-04-29T22:12:49;94476.41;;;10.97;96.18
21828;BME280;11076;47.942;11.804;2023-04-29T22:17:51;94470.38;;;10.76;96.87
21828;BME280;11076;47.942;11.804;2023-04-29T22:22:55;94470.38;;;10.76;96.82
21828;BME280;11076;47.942;11.804;2023-04-29T22:27:58;94477.28;;;10.90;96.64
21828;BME280;11076;47.942;11.804;2023-04-29T22:33:00;94468.41;;;10.90;96.97
21828;BME280;11076;47.942;11.804;2023-04-29T22:38:03;94469.19;;;10.97;96.32
21828;BME280;11076;47.942;11.804;2023-04-29T22:43:05;94474.97;;;10.69;96.93
21828;BME280;11076;47.942;11.804;2023-04-29T22:48:08;94477.91;;;10.61;98.77
21828;BME280;11076;47.942;11.804;2023-04-29T22:53:10;94482.78;;;10.70;98.68
21828;BME280;11076;47.942;11.804;2023-04-29T22:58:12;94481.84;;;10.83;99.02
21828;BME280;11076;47.942;11.804;2023-04-29T23:03:15;94482.84;;;10.89;98.38
21828;BME280;11076;47.942;11.804;2023-04-29T23:08:17;94482.72;;;10.77;97.22
21828;BME280;11076;47.942;11.804;2023-04-29T23:13:19;94485.66;;;10.69;97.16
21828;BME280;11076;47.942;11.804;2023-04-29T23:18:22;94481.53;;;10.73;97.57
21828;BME280;11076;47.942;11.804;2023-04-29T23:23:24;94489.34;;;10.68;96.74
21828;BME280;11076;47.942;11.804;2023-04-29T23:28:27;94486.25;;;10.71;97.18
21828;BME280;11076;47.942;11.804;2023-04-29T23:33:29;94484.63;;;10.70;96.75
21828;BME280;11076;47.942;11.804;2023-04-29T23:38:31;94478.56;;;10.81;96.46
21828;BME280;11076;47.942;11.804;2023-04-29T23:43:34;94484.88;;;10.62;96.78
21828;BME280;11076;47.942;11.804;2023-04-29T23:48:36;94486.09;;;10.66;97.32
21828;BME280;11076;47.942;11.804;2023-04-29T23:53:38;94487.84;;;10.79;96.82
21828;BME280;11076;47.942;11.804;2023-04-29T23:58:41;94481.66;;;10.78;96.47
